Data for 01/09/2010

Time Sea-Level Adjusted Pressure Absolute Pressure Temperature Relative Humidity Dew Point   
(mb) (inHg) (mb) (inHg) (C) (F) (%) (C) (F)
00:05 1022 30.18 851 25.13 -7.7 18.1 83 -10.1 13.9
00:10 1022 30.18 851 25.13 -7.3 18.8 82 -9.9 14.3
00:15 1022 30.18 851 25.13 -7.4 18.7 81 -10.1 13.7
00:20 1022 30.18 851 25.13 -7.7 18.2 83 -10.1 13.8
00:25 1022 30.18 851 25.13 -7.3 18.8 83 -9.7 14.5
00:30 1022 30.18 851 25.13 -7 19.4 80 -9.8 14.3
00:35 1022 30.18 851 25.13 -7.1 19.2 79 -10.1 13.8
00:40 1022 30.18 851 25.13 -7.5 18.4 81 -10.3 13.5
00:45 1022 30.18 851 25.13 -8 17.7 85 -10 14
00:50 1022 30.18 851 25.13 -8.5 16.6 87 -10.3 13.5
00:55 1022 30.18 851 25.13 -8.8 16.1 89 -10.4 13.3
01:00 1022 30.18 851 25.13 -8.7 16.3 88 -10.4 13.3
01:05 1022 30.18 851 25.13 -8.7 16.4 87 -10.4 13.2
01:10 1022 30.18 851 25.13 -8.7 16.3 87 -10.5 13.1
01:15 1022 30.18 851 25.13 -8.7 16.4 88 -10.4 13.3
01:20 1022 30.18 851 25.13 -8.3 17 85 -10.4 13.3
01:25 1022 30.18 851 25.13 -8.1 17.5 84 -10.3 13.4
01:30 1022 30.18 851 25.13 -8.1 17.5 84 -10.3 13.5
01:35 1022 30.18 851 25.13 -8.5 16.8 85 -10.5 13.1
01:40 1022 30.18 851 25.13 -8.6 16.5 86 -10.5 13.1
01:45 1022 30.18 851 25.13 -8.7 16.3 87 -10.6 12.9
01:50 1022 30.18 851 25.13 -8.8 16.1 87 -10.6 12.9
01:55 1022 30.18 851 25.13 -8.7 16.4 86 -10.6 13
02:00 1022 30.18 852 25.16 -8.7 16.4 86 -10.6 12.9
02:05 1022 30.18 852 25.16 -8.8 16.2 85 -10.9 12.4
02:10 1022 30.18 852 25.16 -9 15.8 86 -10.9 12.3
02:15 1022 30.18 852 25.16 -9.1 15.6 85 -11.1 12
02:20 1022 30.18 852 25.16 -9.2 15.5 85 -11.3 11.7
02:25 1022 30.18 852 25.16 -9.2 15.4 85 -11.2 11.8
02:30 1022 30.18 852 25.16 -8.8 16.2 82 -11.4 11.5
02:35 1022 30.18 852 25.16 -8.6 16.5 82 -11.2 11.9
02:40 1022 30.18 852 25.16 -8.1 17.5 83 -10.4 13.3
02:45 1022 30.18 852 25.16 -7.8 18 81 -10.4 13.2
02:50 1022 30.18 852 25.16 -7.9 17.7 80 -10.8 12.5
02:55 1022 30.18 852 25.16 -8.2 17.2 80 -11.1 12.1
03:00 1022 30.18 852 25.16 -8.5 16.7 79 -11.6 11.2
03:05 1022 30.18 852 25.16 -9 15.8 79 -12 10.3
03:10 1022 30.18 852 25.16 -9 15.8 79 -12 10.4
03:15 1022 30.18 852 25.16 -8.6 16.6 82 -11.1 12.1
03:20 1022 30.18 852 25.16 -8 17.7 79 -11 12.2
03:25 1022 30.18 852 25.16 -7.3 18.8 73 -11.4 11.5
03:30 1022 30.18 852 25.16 -7.2 19 77 -10.6 12.9
03:35 1022 30.18 852 25.16 -7 19.4 77 -10.4 13.2
03:40 1022 30.18 852 25.16 -6.9 19.6 77 -10.3 13.5
03:45 1022 30.18 852 25.16 -6.7 19.9 74 -10.7 12.8
03:50 1022 30.18 852 25.16 -6.5 20.4 75 -10.2 13.6
03:55 1022 30.18 852 25.16 -6.3 20.6 74 -10.3 13.5
04:00 1022 30.18 852 25.16 -6.7 20 74 -10.6 13
04:05 1022 30.18 852 25.16 -7.1 19.3 75 -10.7 12.7
04:10 1022 30.18 851 25.13 -7.2 19.1 78 -10.4 13.3
04:15 1022 30.18 851 25.13 -7.4 18.8 78 -10.6 12.8
04:20 1022 30.18 851 25.13 -7.4 18.8 78 -10.6 13
04:25 1022 30.18 852 25.16 -7.4 18.6 78 -10.6 12.9
04:30 1022 30.18 852 25.16 -7.8 17.9 81 -10.6 13
04:35 1022 30.18 852 25.16 -7.9 17.8 80 -10.8 12.6
04:40 1022 30.18 851 25.13 -7.7 18.1 78 -10.9 12.4
04:45 1022 30.18 852 25.16 -7.8 18 77 -11.1 12
04:50 1022 30.18 851 25.13 -8.1 17.3 79 -11.2 11.8
04:55 1022 30.18 851 25.13 -8.3 17 81 -11 12.2
05:00 1022 30.18 851 25.13 -8 17.7 78 -11.1 12
05:05 1022 30.18 852 25.16 -7.5 18.4 77 -10.9 12.4
05:10 1022 30.18 852 25.16 -7.4 18.7 77 -10.7 12.7
05:15 1022 30.18 852 25.16 -7.4 18.7 75 -11.1 12.1
05:20 1022 30.18 852 25.16 -8 17.5 78 -11.2 11.8
05:25 1022 30.18 852 25.16 -8.2 17.3 78 -11.3 11.6
05:30 1022 30.18 852 25.16 -8.5 16.7 79 -11.5 11.3
05:35 1022 30.18 852 25.16 -8.7 16.4 81 -11.3 11.6
05:40 1022 30.18 852 25.16 -8 17.6 78 -11.2 11.9
05:45 1022 30.18 852 25.16 -7.9 17.7 79 -11 12.1
05:50 1023 30.21 852 25.16 -7.8 17.9 78 -11 12.3
05:55 1023 30.21 852 25.16 -7.7 18.2 78 -10.8 12.6
06:00 1023 30.21 852 25.16 -8.1 17.4 80 -11 12.2
06:05 1023 30.21 852 25.16 -8.4 16.9 82 -10.9 12.3
06:10 1023 30.21 852 25.16 -8 17.7 79 -11 12.2
06:15 1023 30.21 852 25.16 -7.9 17.7 80 -10.8 12.6
06:20 1023 30.21 852 25.16 -7.7 18.1 78 -11 12.2
06:25 1023 30.21 852 25.16 -7.9 17.8 78 -11.2 11.9
06:30 1023 30.21 852 25.16 -7.9 17.8 77 -11.2 11.9
06:35 1023 30.21 852 25.16 -7.9 17.7 79 -11 12.3
06:40 1023 30.21 852 25.16 -7.8 17.9 79 -10.9 12.3
06:45 1023 30.21 852 25.16 -7.7 18.2 77 -11 12.2
06:50 1023 30.21 852 25.16 -7.8 18 78 -11 12.1
06:55 1023 30.21 852 25.16 -8.2 17.2 79 -11.3 11.6
07:00 1023 30.21 852 25.16 -8.3 17.1 79 -11.3 11.7
07:05 1023 30.21 852 25.16 -8.1 17.5 78 -11.3 11.7
07:10 1023 30.21 852 25.16 -7.9 17.8 77 -11.2 11.8
07:15 1023 30.21 852 25.16 -8.1 17.4 78 -11.3 11.6
07:20 1023 30.21 852 25.16 -8.3 17 79 -11.4 11.5
07:25 1023 30.21 852 25.16 -8.4 16.9 79 -11.4 11.4
07:30 1023 30.21 852 25.16 -8.4 16.9 79 -11.5 11.3
07:35 1023 30.21 852 25.16 -8.6 16.6 80 -11.5 11.3
07:40 1023 30.21 852 25.16 -8.4 16.8 79 -11.5 11.4
07:45 1023 30.21 852 25.16 -8.3 17.1 79 -11.2 11.8
07:50 1023 30.21 852 25.16 -8.1 17.5 79 -11.1 12.1
07:55 1023 30.21 852 25.16 -8.1 17.4 79 -11.2 11.9
08:00 1023 30.21 852 25.16 -7.9 17.8 78 -11.1 12
08:05 1023 30.21 852 25.16 -7.6 18.2 77 -10.9 12.3
08:10 1023 30.21 852 25.16 -7.5 18.5 76 -11 12.2
08:15 1023 30.21 852 25.16 -7.2 19 74 -11 12.1
08:20 1023 30.21 852 25.16 -7.2 19 72 -11.4 11.4
08:25 1023 30.21 852 25.16 -7.7 18.2 76 -11.3 11.7
08:30 1023 30.21 852 25.16 -7.7 18.2 77 -11.1 12.1
08:35 1023 30.21 852 25.16 -7.6 18.4 75 -11.3 11.7
08:40 1023 30.21 852 25.16 -7 19.4 71 -11.4 11.4
08:45 1023 30.21 852 25.16 -6.5 20.4 68 -11.4 11.4
08:50 1023 30.21 852 25.16 -5.9 21.4 64 -11.7 10.9
08:55 1022 30.18 852 25.16 -5.6 21.9 66 -11.1 12
09:00 1022 30.18 852 25.16 -6.1 21 69 -10.8 12.5
09:05 1023 30.21 852 25.16 -5.9 21.5 63 -11.8 10.8
09:10 1023 30.21 852 25.16 -5.3 22.4 62 -11.5 11.3
09:15 1023 30.21 852 25.16 -5.3 22.5 64 -11 12.2
09:20 1023 30.21 852 25.16 -5.3 22.5 66 -10.7 12.7
09:25 1023 30.21 852 25.16 -5.3 22.5 67 -10.5 13.1
09:30 1023 30.21 852 25.16 -5.6 21.9 70 -10.3 13.5
09:35 1023 30.21 852 25.16 -6 21.2 71 -10.4 13.3
09:40 1023 30.21 853 25.19 -5.5 22 69 -10.4 13.2
09:45 1024 30.24 853 25.19 -5.2 22.6 67 -10.4 13.3
09:50 1024 30.24 853 25.19 -5.3 22.4 68 -10.3 13.5
09:55 1024 30.24 853 25.19 -5.4 22.3 67 -10.5 13
10:00 1024 30.24 853 25.19 -5 22.9 66 -10.4 13.3
10:05 1024 30.24 853 25.19 -5 23.1 66 -10.3 13.4
10:10 1024 30.24 853 25.19 -5.1 22.9 68 -10.2 13.7
10:15 1024 30.24 853 25.19 -5.2 22.7 68 -10.3 13.5
10:20 1024 30.24 853 25.19 -4.4 24 65 -10 14
10:25 1024 30.24 853 25.19 -4.4 24.1 66 -9.9 14.2
10:30 1024 30.24 853 25.19 -3.6 25.5 62 -9.9 14.2
10:35 1024 30.24 853 25.19 -3.2 26.2 58 -10.3 13.5
10:40 1024 30.24 853 25.19 -2.7 27.1 57 -10 14
10:45 1024 30.24 853 25.19 -2.9 26.7 59 -9.9 14.3
10:50 1024 30.24 853 25.19 -3 26.6 58 -10.1 13.8
10:55 1024 30.24 853 25.19 -2.9 26.8 58 -10.1 13.8
11:00 1024 30.24 853 25.19 -3.2 26.2 59 -10.3 13.5
11:05 1024 30.24 853 25.19 -3.1 26.4 58 -10.2 13.6
11:10 1024 30.24 853 25.19 -2.5 27.5 57 -9.8 14.3
11:15 1024 30.24 853 25.19 -2.1 28.3 56 -9.8 14.4
11:20 1024 30.24 853 25.19 -1.7 28.9 54 -9.9 14.2
11:25 1024 30.24 853 25.19 -1.3 29.6 53 -9.7 14.6
11:30 1024 30.24 853 25.19 -0.7 30.7 50 -9.9 14.1
11:35 1024 30.24 853 25.19 0.1 32.2 47 -9.9 14.1
11:40 1024 30.24 853 25.19 0.2 32.4 46 -10.1 13.8
11:45 1024 30.24 853 25.19 0 32 48 -9.6 14.7
11:50 1024 30.24 853 25.19 -0.3 31.5 54 -8.5 16.7
11:55 1024 30.24 853 25.19 -0.6 30.9 60 -7.5 18.5
12:00 1024 30.24 853 25.19 -1.4 29.4 61 -7.9 17.7
12:05 1024 30.24 853 25.19 -1.3 29.7 60 -8 17.6
12:10 1024 30.24 853 25.19 -0.9 30.4 61 -7.5 18.4
12:15 1024 30.24 853 25.19 -0.9 30.4 57 -8.4 16.9
12:20 1024 30.24 853 25.19 -0.7 30.7 57 -8.2 17.3
12:25 1024 30.24 853 25.19 -0.3 31.5 56 -8 17.7
12:30 1024 30.24 853 25.19 -0.2 31.6 57 -7.7 18.1
12:35 1024 30.24 853 25.19 -0.8 30.6 61 -7.3 18.8
12:40 1024 30.24 853 25.19 -0.9 30.3 61 -7.5 18.5
12:45 1024 30.24 853 25.19 -1.3 29.6 64 -7.3 18.8
12:50 1024 30.24 853 25.19 -1.8 28.8 64 -7.6 18.2
12:55 1024 30.24 853 25.19 -1.9 28.5 65 -7.7 18.1
13:00 1024 30.24 853 25.19 -1.8 28.7 64 -7.9 17.9
13:05 1024 30.24 853 25.19 -2.2 28.1 64 -8.2 17.3
13:10 1024 30.24 853 25.19 -2.1 28.3 62 -8.5 16.7
13:15 1024 30.24 853 25.19 -2 28.3 64 -8 17.6
13:20 1024 30.24 853 25.19 -2.4 27.7 68 -7.6 18.4
13:25 1024 30.24 853 25.19 -2.6 27.3 61 -9.1 15.7
13:30 1024 30.24 853 25.19 -2.4 27.7 58 -9.6 14.7
13:35 1024 30.24 853 25.19 -2 28.3 58 -9.2 15.5
13:40 1024 30.24 853 25.19 -1.8 28.7 54 -9.9 14.2
13:45 1024 30.24 853 25.19 -1.7 28.9 51 -10.5 13.1
13:50 1024 30.24 853 25.19 -1.6 29.1 52 -10.2 13.6
13:55 1024 30.24 853 25.19 -1.2 29.8 49 -10.7 12.7
14:00 1024 30.24 853 25.19 -0.9 30.4 49 -10.3 13.4
14:05 1024 30.24 853 25.19 -0.6 30.8 50 -9.8 14.4
14:10 1024 30.24 853 25.19 -0.5 31.1 43 -11.5 11.3
14:15 1024 30.24 853 25.19 -0.6 30.9 46 -10.9 12.4
14:20 1024 30.24 853 25.19 -0.5 31 50 -9.8 14.3
14:25 1024 30.24 853 25.19 -0.4 31.3 48 -10 14
14:30 1024 30.24 853 25.19 -0.4 31.3 47 -10.5 13.1
14:35 1024 30.24 853 25.19 -0.2 31.6 47 -10.1 13.8
14:40 1024 30.24 853 25.19 0 32 47 -10.1 13.8
14:45 1024 30.24 853 25.19 0.1 32.2 52 -8.6 16.5
14:50 1024 30.24 854 25.22 0.2 32.4 53 -8.1 17.3
14:55 1024 30.24 853 25.19 0.3 32.6 54 -8 17.6
15:00 1024 30.24 854 25.22 0.3 32.6 57 -7.2 19
15:05 1024 30.24 854 25.22 0.3 32.6 55 -7.7 18.1
15:10 1024 30.24 854 25.22 -0.2 31.6 54 -8.5 16.7
15:15 1024 30.24 854 25.22 -0.5 31.1 52 -9.1 15.6
15:20 1025 30.27 854 25.22 -0.4 31.3 49 -9.8 14.4
15:25 1025 30.27 854 25.22 -0.3 31.5 50 -9.5 14.9
15:30 1025 30.27 854 25.22 -0.3 31.5 49 -9.7 14.5
15:35 1025 30.27 854 25.22 -0.4 31.2 55 -8.5 16.7
15:40 1025 30.27 854 25.22 -0.5 31 54 -8.6 16.4
15:45 1025 30.27 854 25.22 -0.6 30.9 56 -8.2 17.2
15:50 1025 30.27 854 25.22 -0.7 30.8 58 -7.9 17.8
15:55 1025 30.27 854 25.22 -0.7 30.8 55 -8.5 16.6
16:00 1025 30.27 854 25.22 -0.7 30.8 57 -8.2 17.3
16:05 1025 30.27 854 25.22 -0.6 30.9 56 -8.4 16.8
16:10 1025 30.27 854 25.22 -0.5 31.1 56 -8.1 17.4
16:15 1025 30.27 854 25.22 -0.4 31.3 58 -7.7 18.1
16:20 1025 30.27 854 25.22 -0.4 31.3 57 -7.8 17.9
16:25 1025 30.27 854 25.22 -0.5 31.1 52 -9.3 15.3
16:30 1025 30.27 854 25.22 -0.6 30.9 50 -9.7 14.6
16:35 1025 30.27 854 25.22 -0.8 30.6 52 -9.4 15.1
16:40 1024 30.24 854 25.22 -1 30.1 56 -8.7 16.3
16:45 1024 30.24 854 25.22 -1.2 29.8 54 -9.4 15
16:50 1024 30.24 854 25.22 -1.3 29.7 52 -10 14
16:55 1024 30.24 854 25.22 -1.2 29.8 52 -9.9 14.2
17:00 1024 30.24 854 25.22 -1.2 29.9 53 -9.5 14.8
17:05 1024 30.24 854 25.22 -1.1 30 53 -9.5 14.8
17:10 1025 30.27 854 25.22 -1 30.1 53 -9.5 14.8
17:15 1024 30.24 854 25.22 -0.9 30.3 54 -9.1 15.7
17:20 1024 30.24 854 25.22 -0.9 30.4 54 -9.2 15.5
17:25 1024 30.24 854 25.22 -0.8 30.6 52 -9.5 14.9
17:30 1024 30.24 854 25.22 -0.8 30.6 53 -9.3 15.3
17:35 1024 30.24 854 25.22 -0.8 30.6 54 -9.1 15.7
17:40 1025 30.27 854 25.22 -0.7 30.7 58 -8 17.6
17:45 1025 30.27 854 25.22 -0.8 30.6 56 -8.4 16.9
17:50 1025 30.27 854 25.22 -0.8 30.5 56 -8.5 16.7
17:55 1025 30.27 854 25.22 -1.1 30.1 58 -8.4 16.9
18:00 1025 30.27 854 25.22 -1.1 29.9 59 -8.1 17.4
18:05 1025 30.27 854 25.22 -1.2 29.9 59 -8.2 17.2
18:10 1025 30.27 854 25.22 -1.3 29.7 58 -8.4 16.9
18:15 1025 30.27 854 25.22 -1.2 29.9 61 -7.7 18.1
18:20 1025 30.27 854 25.22 -1.1 30 61 -7.7 18.2
18:25 1025 30.27 854 25.22 -1.2 29.9 64 -7.1 19.1
18:30 1025 30.27 854 25.22 -1.2 29.9 67 -6.6 20.1
18:35 1025 30.27 854 25.22 -1.4 29.5 68 -6.6 20.1
18:40 1025 30.27 854 25.22 -1.4 29.5 69 -6.5 20.4
18:45 1025 30.27 854 25.22 -1.4 29.5 67 -6.7 20
18:50 1025 30.27 854 25.22 -1.6 29.2 67 -6.9 19.6
18:55 1025 30.27 854 25.22 -1.7 29 68 -6.8 19.7
19:00 1025 30.27 854 25.22 -1.9 28.7 69 -6.9 19.7
19:05 1025 30.27 854 25.22 -1.8 28.8 70 -6.6 20.1
19:10 1025 30.27 854 25.22 -2.1 28.2 72 -6.6 20.2
19:15 1025 30.27 854 25.22 -2.5 27.5 73 -6.8 19.8
19:20 1025 30.27 854 25.22 -2.6 27.3 71 -7.1 19.2
19:25 1025 30.27 854 25.22 -2.5 27.5 71 -7.1 19.2
19:30 1025 30.27 854 25.22 -2.4 27.8 70 -7.1 19.2
19:35 1025 30.27 854 25.22 -2.4 27.7 71 -7 19.4
19:40 1025 30.27 854 25.22 -2.4 27.7 69 -7.3 18.8
19:45 1025 30.27 854 25.22 -2.4 27.8 67 -7.6 18.2
19:50 1025 30.27 854 25.22 -2.3 27.8 63 -8.4 16.9
19:55 1025 30.27 854 25.22 -2.3 27.8 64 -8.3 17.1
20:00 1025 30.27 854 25.22 -2.5 27.5 67 -7.8 17.9
20:05 1025 30.27 855 25.25 -2.6 27.3 69 -7.6 18.4
20:10 1025 30.27 855 25.25 -2.8 27 70 -7.4 18.6
20:15 1025 30.27 854 25.22 -3 26.7 69 -7.8 17.9
20:20 1025 30.27 854 25.22 -2.9 26.7 69 -7.8 18
20:25 1025 30.27 854 25.22 -2.9 26.8 70 -7.7 18.2
20:30 1025 30.27 854 25.22 -2.7 27.1 69 -7.7 18.1
20:35 1025 30.27 854 25.22 -2.4 27.6 68 -7.6 18.2
20:40 1025 30.27 854 25.22 -2.3 27.8 67 -7.6 18.4
20:45 1025 30.27 854 25.22 -2.2 28 68 -7.3 18.8
20:50 1025 30.27 854 25.22 -2.3 27.9 69 -7.2 19
20:55 1025 30.27 854 25.22 -2.4 27.7 70 -7.2 19.1
21:00 1025 30.27 854 25.22 -2.4 27.6 71 -7 19.3
21:05 1025 30.27 854 25.22 -2.5 27.5 72 -7 19.5
21:10 1025 30.27 854 25.22 -2.5 27.5 73 -6.6 20.1
21:15 1025 30.27 854 25.22 -2.5 27.4 76 -6.2 20.9
21:20 1025 30.27 854 25.22 -2.6 27.3 79 -5.7 21.7
21:25 1025 30.27 854 25.22 -2.4 27.7 78 -5.7 21.8
21:30 1025 30.27 854 25.22 -2.1 28.3 76 -5.7 21.7
21:35 1025 30.27 854 25.22 -1.7 29 75 -5.6 21.9
21:40 1025 30.27 854 25.22 -1.6 29.2 74 -5.7 21.8
21:45 1025 30.27 854 25.22 -1.4 29.5 73 -5.6 21.8
21:50 1025 30.27 854 25.22 -1.3 29.6 73 -5.6 21.9
21:55 1025 30.27 854 25.22 -1.6 29.2 74 -5.6 22
22:00 1025 30.27 854 25.22 -1.9 28.5 76 -5.7 21.8
22:05 1025 30.27 854 25.22 -1.8 28.8 72 -6.2 20.9
22:10 1025 30.27 854 25.22 -1.5 29.3 72 -6 21.2
22:15 1025 30.27 854 25.22 -1.5 29.2 72 -5.9 21.4
22:20 1025 30.27 854 25.22 -1.7 29 74 -5.7 21.7
22:25 1025 30.27 854 25.22 -1.9 28.6 75 -5.8 21.6
22:30 1025 30.27 854 25.22 -2 28.4 72 -6.4 20.5
22:35 1025 30.27 854 25.22 -1.8 28.8 72 -6.2 20.9
22:40 1025 30.27 854 25.22 -1.8 28.8 71 -6.4 20.4
22:45 1025 30.27 854 25.22 -1.8 28.8 71 -6.3 20.6
22:50 1025 30.27 854 25.22 -1.9 28.6 72 -6.2 20.8
22:55 1025 30.27 854 25.22 -2.2 28 75 -6.1 21.1
23:00 1025 30.27 854 25.22 -2.5 27.4 78 -5.9 21.3
23:05 1025 30.27 854 25.22 -2.8 27 81 -5.6 21.8
23:10 1025 30.27 854 25.22 -3.2 26.2 82 -5.9 21.3
23:15 1025 30.27 854 25.22 -3.4 25.8 82 -6.1 20.9
23:20 1025 30.27 854 25.22 -3 26.5 79 -6.2 20.9
23:25 1025 30.27 854 25.22 -3 26.6 79 -6.2 20.9
23:30 1025 30.27 854 25.22 -3 26.5 80 -6 21.2
23:35 1025 30.27 854 25.22 -3.5 25.8 81 -6.3 20.6
23:40 1025 30.27 854 25.22 -3.6 25.6 79 -6.6 20
23:45 1025 30.27 854 25.22 -3.3 26 79 -6.5 20.3
23:50 1025 30.27 854 25.22 -3.1 26.4 79 -6.3 20.7
23:55 1025 30.27 854 25.22 -3 26.6 78 -6.3 20.7
24:00 1025 30.27 854 25.22 -3 26.6 80 -6 21.1